Terminal Aerodrome Forecast
Issued by NWS

Home | Current Version | Previous Version | Text Only | Print | Product List | Glossary On
Versions: 1 2 3 4 5 6 7 8 9 10 11 12 13 14 15
000
FTAK31 PAJN 032300
TAFAKT
TAF
PAKT 032337Z 0400/0424 VRB06KT P6SM FEW040 SCT100
     FM041200 34008KT P6SM FEW004
     FM041500 34012KT P6SM SKC
      AMD LTD TO CLD VIS AND WIND 0406/0415=

USA.gov is the U.S. government's official web portal to all federal, state and local government web resources and services.